sensor_id;sensor_type;location;lat;lon;timestamp;P1;durP1;ratioP1;P2;durP2;ratioP2
253;SDS011;590;48.772;8.846;2023-10-31T00:02:14;0.50;;;0.40;;
253;SDS011;590;48.772;8.846;2023-10-31T00:04:43;0.50;;;0.30;;
253;SDS011;590;48.772;8.846;2023-10-31T00:07:12;0.60;;;0.30;;
253;SDS011;590;48.772;8.846;2023-10-31T00:09:39;0.63;;;0.40;;
253;SDS011;590;48.772;8.846;2023-10-31T00:12:08;1.00;;;0.30;;
253;SDS011;590;48.772;8.846;2023-10-31T00:14:36;0.60;;;0.30;;
253;SDS011;590;48.772;8.846;2023-10-31T00:17:04;0.60;;;0.40;;
253;SDS011;590;48.772;8.846;2023-10-31T00:19:32;0.50;;;0.30;;
253;SDS011;590;48.772;8.846;2023-10-31T00:22:01;0.40;;;0.30;;
253;SDS011;590;48.772;8.846;2023-10-31T00:24:29;0.47;;;0.30;;
253;SDS011;590;48.772;8.846;2023-10-31T00:26:58;0.70;;;0.43;;
253;SDS011;590;48.772;8.846;2023-10-31T00:29:26;1.00;;;0.53;;
253;SDS011;590;48.772;8.846;2023-10-31T00:31:54;0.43;;;0.33;;
253;SDS011;590;48.772;8.846;2023-10-31T00:34:22;0.60;;;0.40;;
253;SDS011;590;48.772;8.846;2023-10-31T00:36:50;0.93;;;0.30;;
253;SDS011;590;48.772;8.846;2023-10-31T00:39:20;1.17;;;0.43;;
253;SDS011;590;48.772;8.846;2023-10-31T00:41:48;0.63;;;0.40;;
253;SDS011;590;48.772;8.846;2023-10-31T00:44:16;0.60;;;0.40;;
253;SDS011;590;48.772;8.846;2023-10-31T00:46:44;0.50;;;0.40;;
253;SDS011;590;48.772;8.846;2023-10-31T00:49:12;1.20;;;0.40;;
253;SDS011;590;48.772;8.846;2023-10-31T00:51:40;2.50;;;0.40;;
253;SDS011;590;48.772;8.846;2023-10-31T00:54:08;0.50;;;0.50;;
253;SDS011;590;48.772;8.846;2023-10-31T00:56:37;1.10;;;0.37;;
253;SDS011;590;48.772;8.846;2023-10-31T00:59:05;1.07;;;0.40;;
253;SDS011;590;48.772;8.846;2023-10-31T01:01:33;0.60;;;0.43;;
253;SDS011;590;48.772;8.846;2023-10-31T01:04:01;0.53;;;0.30;;
253;SDS011;590;48.772;8.846;2023-10-31T01:06:30;0.60;;;0.40;;
253;SDS011;590;48.772;8.846;2023-10-31T01:08:58;1.20;;;0.50;;
253;SDS011;590;48.772;8.846;2023-10-31T01:11:26;0.80;;;0.60;;
253;SDS011;590;48.772;8.846;2023-10-31T01:13:55;0.50;;;0.50;;
253;SDS011;590;48.772;8.846;2023-10-31T01:16:23;0.70;;;0.60;;
253;SDS011;590;48.772;8.846;2023-10-31T01:18:51;0.70;;;0.50;;
253;SDS011;590;48.772;8.846;2023-10-31T01:21:19;1.00;;;0.40;;
253;SDS011;590;48.772;8.846;2023-10-31T01:23:47;1.20;;;0.93;;
253;SDS011;590;48.772;8.846;2023-10-31T01:26:15;0.67;;;0.50;;
253;SDS011;590;48.772;8.846;2023-10-31T01:28:43;0.50;;;0.33;;
253;SDS011;590;48.772;8.846;2023-10-31T01:31:13;0.60;;;0.40;;
253;SDS011;590;48.772;8.846;2023-10-31T01:33:41;0.93;;;0.50;;
253;SDS011;590;48.772;8.846;2023-10-31T01:36:09;1.03;;;0.67;;
253;SDS011;590;48.772;8.846;2023-10-31T01:38:38;2.73;;;0.67;;
253;SDS011;590;48.772;8.846;2023-10-31T01:41:06;0.73;;;0.60;;
253;SDS011;590;48.772;8.846;2023-10-31T01:43:36;0.57;;;0.50;;
253;SDS011;590;48.772;8.846;2023-10-31T01:46:04;0.60;;;0.40;;
253;SDS011;590;48.772;8.846;2023-10-31T01:48:34;2.57;;;0.97;;
253;SDS011;590;48.772;8.846;2023-10-31T01:51:03;0.80;;;0.50;;
253;SDS011;590;48.772;8.846;2023-10-31T01:53:32;1.00;;;0.83;;
253;SDS011;590;48.772;8.846;2023-10-31T01:56:02;1.73;;;0.70;;
253;SDS011;590;48.772;8.846;2023-10-31T01:58:32;0.80;;;0.60;;
253;SDS011;590;48.772;8.846;2023-10-31T02:01:03;1.90;;;0.67;;
253;SDS011;590;48.772;8.846;2023-10-31T02:03:32;0.80;;;0.60;;
253;SDS011;590;48.772;8.846;2023-10-31T02:06:02;0.87;;;0.70;;
253;SDS011;590;48.772;8.846;2023-10-31T02:08:31;0.90;;;0.90;;
253;SDS011;590;48.772;8.846;2023-10-31T02:10:59;1.10;;;0.70;;
253;SDS011;590;48.772;8.846;2023-10-31T02:13:27;0.50;;;0.50;;
253;SDS011;590;48.772;8.846;2023-10-31T02:15:55;0.60;;;0.50;;
253;SDS011;590;48.772;8.846;2023-10-31T02:18:23;0.70;;;0.50;;
253;SDS011;590;48.772;8.846;2023-10-31T02:20:52;0.60;;;0.43;;
253;SDS011;590;48.772;8.846;2023-10-31T02:23:21;4.93;;;0.90;;
253;SDS011;590;48.772;8.846;2023-10-31T02:25:49;1.93;;;0.57;;
253;SDS011;590;48.772;8.846;2023-10-31T02:28:17;1.17;;;0.60;;
253;SDS011;590;48.772;8.846;2023-10-31T02:30:45;0.73;;;0.50;;
253;SDS011;590;48.772;8.846;2023-10-31T02:33:13;0.80;;;0.60;;
253;SDS011;590;48.772;8.846;2023-10-31T02:35:41;1.07;;;0.30;;
253;SDS011;590;48.772;8.846;2023-10-31T02:38:09;0.80;;;0.60;;
253;SDS011;590;48.772;8.846;2023-10-31T02:40:39;1.30;;;0.47;;
253;SDS011;590;48.772;8.846;2023-10-31T02:43:07;0.77;;;0.57;;
253;SDS011;590;48.772;8.846;2023-10-31T02:45:35;0.50;;;0.43;;
253;SDS011;590;48.772;8.846;2023-10-31T02:48:03;0.80;;;0.50;;
253;SDS011;590;48.772;8.846;2023-10-31T02:50:31;0.80;;;0.40;;
253;SDS011;590;48.772;8.846;2023-10-31T02:52:59;0.73;;;0.70;;
253;SDS011;590;48.772;8.846;2023-10-31T02:55:27;0.90;;;0.43;;
253;SDS011;590;48.772;8.846;2023-10-31T02:57:57;1.37;;;0.60;;
253;SDS011;590;48.772;8.846;2023-10-31T03:00:25;0.97;;;0.47;;
253;SDS011;590;48.772;8.846;2023-10-31T03:02:53;0.70;;;0.50;;
253;SDS011;590;48.772;8.846;2023-10-31T03:05:21;1.30;;;0.50;;
253;SDS011;590;48.772;8.846;2023-10-31T03:07:49;0.53;;;0.50;;
253;SDS011;590;48.772;8.846;2023-10-31T03:10:17;0.77;;;0.50;;
253;SDS011;590;48.772;8.846;2023-10-31T03:12:46;1.10;;;0.70;;
253;SDS011;590;48.772;8.846;2023-10-31T03:15:16;0.90;;;0.60;;
253;SDS011;590;48.772;8.846;2023-10-31T03:17:44;1.40;;;0.70;;
253;SDS011;590;48.772;8.846;2023-10-31T03:20:12;1.50;;;0.63;;
253;SDS011;590;48.772;8.846;2023-10-31T03:22:40;0.50;;;0.50;;
253;SDS011;590;48.772;8.846;2023-10-31T03:25:08;0.80;;;0.50;;
253;SDS011;590;48.772;8.846;2023-10-31T03:27:37;0.73;;;0.50;;
253;SDS011;590;48.772;8.846;2023-10-31T03:30:05;1.00;;;0.60;;
253;SDS011;590;48.772;8.846;2023-10-31T03:32:36;1.27;;;0.60;;
253;SDS011;590;48.772;8.846;2023-10-31T03:35:04;1.07;;;0.60;;
253;SDS011;590;48.772;8.846;2023-10-31T03:37:33;0.60;;;0.40;;
253;SDS011;590;48.772;8.846;2023-10-31T03:40:02;0.73;;;0.60;;
253;SDS011;590;48.772;8.846;2023-10-31T03:42:31;0.50;;;0.40;;
253;SDS011;590;48.772;8.846;2023-10-31T03:44:59;0.70;;;0.50;;
253;SDS011;590;48.772;8.846;2023-10-31T03:47:27;1.57;;;0.50;;
253;SDS011;590;48.772;8.846;2023-10-31T03:49:57;0.60;;;0.47;;
253;SDS011;590;48.772;8.846;2023-10-31T03:52:25;0.80;;;0.60;;
253;SDS011;590;48.772;8.846;2023-10-31T03:54:53;0.70;;;0.60;;
253;SDS011;590;48.772;8.846;2023-10-31T03:57:21;1.00;;;0.67;;
253;SDS011;590;48.772;8.846;2023-10-31T03:59:49;1.43;;;0.70;;
253;SDS011;590;48.772;8.846;2023-10-31T04:02:17;0.60;;;0.57;;
253;SDS011;590;48.772;8.846;2023-10-31T04:04:45;0.60;;;0.60;;
253;SDS011;590;48.772;8.846;2023-10-31T04:07:14;0.80;;;0.63;;
253;SDS011;590;48.772;8.846;2023-10-31T04:09:42;1.13;;;0.70;;
253;SDS011;590;48.772;8.846;2023-10-31T04:12:11;0.60;;;0.50;;
253;SDS011;590;48.772;8.846;2023-10-31T04:14:39;1.90;;;0.50;;
253;SDS011;590;48.772;8.846;2023-10-31T04:17:07;1.00;;;0.63;;
253;SDS011;590;48.772;8.846;2023-10-31T04:19:36;0.83;;;0.40;;
253;SDS011;590;48.772;8.846;2023-10-31T04:22:04;0.60;;;0.40;;
253;SDS011;590;48.772;8.846;2023-10-31T04:24:33;0.97;;;0.40;;
253;SDS011;590;48.772;8.846;2023-10-31T04:27:01;0.50;;;0.33;;
253;SDS011;590;48.772;8.846;2023-10-31T04:29:29;2.50;;;0.70;;
253;SDS011;590;48.772;8.846;2023-10-31T04:31:57;3.00;;;0.60;;
253;SDS011;590;48.772;8.846;2023-10-31T04:34:25;0.80;;;0.50;;
253;SDS011;590;48.772;8.846;2023-10-31T04:36:53;0.60;;;0.53;;
253;SDS011;590;48.772;8.846;2023-10-31T04:39:21;2.50;;;0.50;;
253;SDS011;590;48.772;8.846;2023-10-31T04:41:51;0.60;;;0.50;;
253;SDS011;590;48.772;8.846;2023-10-31T04:44:19;0.90;;;0.50;;
253;SDS011;590;48.772;8.846;2023-10-31T04:46:47;0.73;;;0.50;;
253;SDS011;590;48.772;8.846;2023-10-31T04:49:15;0.50;;;0.50;;
253;SDS011;590;48.772;8.846;2023-10-31T04:51:43;0.93;;;0.50;;
253;SDS011;590;48.772;8.846;2023-10-31T04:54:11;2.60;;;0.60;;
253;SDS011;590;48.772;8.846;2023-10-31T04:56:39;0.80;;;0.70;;
253;SDS011;590;48.772;8.846;2023-10-31T04:59:09;1.30;;;1.17;;
253;SDS011;590;48.772;8.846;2023-10-31T05:01:37;2.00;;;1.20;;
253;SDS011;590;48.772;8.846;2023-10-31T05:04:05;1.20;;;1.00;;
253;SDS011;590;48.772;8.846;2023-10-31T05:06:38;1.20;;;1.03;;
253;SDS011;590;48.772;8.846;2023-10-31T05:09:07;1.90;;;0.97;;
253;SDS011;590;48.772;8.846;2023-10-31T05:11:37;0.73;;;0.70;;
253;SDS011;590;48.772;8.846;2023-10-31T05:14:07;0.90;;;0.50;;
253;SDS011;590;48.772;8.846;2023-10-31T05:16:41;1.57;;;1.20;;
253;SDS011;590;48.772;8.846;2023-10-31T05:19:09;1.70;;;1.60;;
253;SDS011;590;48.772;8.846;2023-10-31T05:21:37;2.23;;;1.90;;
253;SDS011;590;48.772;8.846;2023-10-31T05:24:06;2.00;;;1.90;;
253;SDS011;590;48.772;8.846;2023-10-31T05:26:35;2.30;;;2.10;;
253;SDS011;590;48.772;8.846;2023-10-31T05:29:03;3.20;;;3.00;;
253;SDS011;590;48.772;8.846;2023-10-31T05:31:32;1.97;;;1.87;;
253;SDS011;590;48.772;8.846;2023-10-31T05:34:01;1.00;;;0.83;;
253;SDS011;590;48.772;8.846;2023-10-31T05:36:30;0.93;;;0.83;;
253;SDS011;590;48.772;8.846;2023-10-31T05:38:58;1.57;;;1.00;;
253;SDS011;590;48.772;8.846;2023-10-31T05:41:26;2.23;;;0.80;;
253;SDS011;590;48.772;8.846;2023-10-31T05:43:54;0.80;;;0.60;;
253;SDS011;590;48.772;8.846;2023-10-31T05:46:22;0.90;;;0.70;;
253;SDS011;590;48.772;8.846;2023-10-31T05:48:51;2.33;;;0.73;;
253;SDS011;590;48.772;8.846;2023-10-31T05:51:19;0.93;;;0.50;;
253;SDS011;590;48.772;8.846;2023-10-31T05:53:48;0.60;;;0.30;;
253;SDS011;590;48.772;8.846;2023-10-31T05:56:16;1.63;;;0.70;;
253;SDS011;590;48.772;8.846;2023-10-31T05:58:44;1.70;;;0.60;;
253;SDS011;590;48.772;8.846;2023-10-31T06:01:12;0.90;;;0.60;;
253;SDS011;590;48.772;8.846;2023-10-31T06:03:41;0.83;;;0.50;;
253;SDS011;590;48.772;8.846;2023-10-31T06:06:11;2.00;;;0.50;;
253;SDS011;590;48.772;8.846;2023-10-31T06:08:40;0.80;;;0.37;;
253;SDS011;590;48.772;8.846;2023-10-31T06:11:09;0.83;;;0.60;;
253;SDS011;590;48.772;8.846;2023-10-31T06:13:39;1.30;;;0.90;;
253;SDS011;590;48.772;8.846;2023-10-31T06:16:07;0.87;;;0.73;;
253;SDS011;590;48.772;8.846;2023-10-31T06:18:35;2.37;;;0.90;;
253;SDS011;590;48.772;8.846;2023-10-31T06:21:05;0.77;;;0.60;;
253;SDS011;590;48.772;8.846;2023-10-31T06:23:37;1.33;;;1.20;;
253;SDS011;590;48.772;8.846;2023-10-31T06:26:05;1.33;;;1.00;;
253;SDS011;590;48.772;8.846;2023-10-31T06:28:33;1.00;;;0.90;;
253;SDS011;590;48.772;8.846;2023-10-31T06:31:10;1.13;;;0.90;;
253;SDS011;590;48.772;8.846;2023-10-31T06:33:39;2.10;;;1.07;;
253;SDS011;590;48.772;8.846;2023-10-31T06:36:07;2.50;;;0.90;;
253;SDS011;590;48.772;8.846;2023-10-31T06:38:37;1.00;;;0.50;;
253;SDS011;590;48.772;8.846;2023-10-31T06:41:05;0.70;;;0.53;;
253;SDS011;590;48.772;8.846;2023-10-31T06:43:33;2.67;;;0.77;;
253;SDS011;590;48.772;8.846;2023-10-31T06:46:02;1.00;;;0.90;;
253;SDS011;590;48.772;8.846;2023-10-31T06:48:31;1.07;;;0.90;;
253;SDS011;590;48.772;8.846;2023-10-31T06:50:59;1.97;;;0.87;;
253;SDS011;590;48.772;8.846;2023-10-31T06:53:27;0.70;;;0.70;;
253;SDS011;590;48.772;8.846;2023-10-31T06:55:57;1.60;;;0.80;;
253;SDS011;590;48.772;8.846;2023-10-31T06:58:25;0.53;;;0.43;;
253;SDS011;590;48.772;8.846;2023-10-31T07:00:53;1.10;;;0.70;;
253;SDS011;590;48.772;8.846;2023-10-31T07:03:21;0.90;;;0.70;;
253;SDS011;590;48.772;8.846;2023-10-31T07:05:49;0.90;;;0.90;;
253;SDS011;590;48.772;8.846;2023-10-31T07:08:17;0.70;;;0.60;;
253;SDS011;590;48.772;8.846;2023-10-31T07:10:46;0.83;;;0.80;;
253;SDS011;590;48.772;8.846;2023-10-31T07:13:15;1.20;;;0.80;;
253;SDS011;590;48.772;8.846;2023-10-31T07:15:44;1.30;;;0.80;;
253;SDS011;590;48.772;8.846;2023-10-31T07:18:13;1.10;;;0.53;;
253;SDS011;590;48.772;8.846;2023-10-31T07:20:41;0.90;;;0.70;;
253;SDS011;590;48.772;8.846;2023-10-31T07:23:09;1.00;;;0.97;;
253;SDS011;590;48.772;8.846;2023-10-31T07:25:37;1.30;;;1.20;;
253;SDS011;590;48.772;8.846;2023-10-31T07:28:05;2.00;;;1.07;;
253;SDS011;590;48.772;8.846;2023-10-31T07:30:34;1.23;;;1.20;;
253;SDS011;590;48.772;8.846;2023-10-31T07:33:02;1.50;;;0.70;;
253;SDS011;590;48.772;8.846;2023-10-31T07:35:30;1.37;;;0.80;;
253;SDS011;590;48.772;8.846;2023-10-31T07:37:59;2.17;;;1.00;;
253;SDS011;590;48.772;8.846;2023-10-31T07:40:27;1.50;;;0.70;;
253;SDS011;590;48.772;8.846;2023-10-31T07:42:55;1.13;;;1.00;;
253;SDS011;590;48.772;8.846;2023-10-31T07:45:23;1.17;;;0.70;;
253;SDS011;590;48.772;8.846;2023-10-31T07:47:53;0.83;;;0.83;;
253;SDS011;590;48.772;8.846;2023-10-31T07:50:21;1.20;;;1.00;;
253;SDS011;590;48.772;8.846;2023-10-31T07:52:49;2.00;;;0.80;;
253;SDS011;590;48.772;8.846;2023-10-31T07:55:17;1.40;;;1.10;;
253;SDS011;590;48.772;8.846;2023-10-31T07:57:45;1.70;;;1.10;;
253;SDS011;590;48.772;8.846;2023-10-31T08:00:14;1.67;;;0.93;;
253;SDS011;590;48.772;8.846;2023-10-31T08:02:43;1.73;;;0.93;;
253;SDS011;590;48.772;8.846;2023-10-31T08:05:12;1.20;;;0.87;;
253;SDS011;590;48.772;8.846;2023-10-31T08:07:40;1.30;;;1.10;;
253;SDS011;590;48.772;8.846;2023-10-31T08:10:08;2.40;;;1.10;;
253;SDS011;590;48.772;8.846;2023-10-31T08:12:37;1.13;;;1.03;;
253;SDS011;590;48.772;8.846;2023-10-31T08:15:05;2.37;;;1.00;;
253;SDS011;590;48.772;8.846;2023-10-31T08:17:35;2.93;;;1.10;;
253;SDS011;590;48.772;8.846;2023-10-31T08:20:03;1.27;;;0.90;;
253;SDS011;590;48.772;8.846;2023-10-31T08:22:33;1.67;;;0.70;;
253;SDS011;590;48.772;8.846;2023-10-31T08:25:01;0.50;;;0.40;;
253;SDS011;590;48.772;8.846;2023-10-31T08:27:30;0.90;;;0.80;;
253;SDS011;590;48.772;8.846;2023-10-31T08:29:58;1.30;;;0.87;;
253;SDS011;590;48.772;8.846;2023-10-31T08:32:26;1.17;;;0.80;;
253;SDS011;590;48.772;8.846;2023-10-31T08:34:55;1.87;;;1.20;;
253;SDS011;590;48.772;8.846;2023-10-31T08:37:24;2.70;;;1.10;;
253;SDS011;590;48.772;8.846;2023-10-31T08:39:53;0.70;;;0.60;;
253;SDS011;590;48.772;8.846;2023-10-31T08:42:21;2.77;;;0.90;;
253;SDS011;590;48.772;8.846;2023-10-31T08:44:49;1.00;;;0.90;;
253;SDS011;590;48.772;8.846;2023-10-31T08:47:17;0.80;;;0.60;;
253;SDS011;590;48.772;8.846;2023-10-31T08:49:45;2.40;;;0.80;;
253;SDS011;590;48.772;8.846;2023-10-31T08:52:13;2.67;;;1.00;;
253;SDS011;590;48.772;8.846;2023-10-31T08:54:42;1.37;;;0.83;;
253;SDS011;590;48.772;8.846;2023-10-31T08:57:11;1.43;;;0.90;;
253;SDS011;590;48.772;8.846;2023-10-31T08:59:39;1.30;;;0.90;;
253;SDS011;590;48.772;8.846;2023-10-31T09:02:07;1.60;;;1.30;;
253;SDS011;590;48.772;8.846;2023-10-31T09:04:35;2.83;;;1.00;;
253;SDS011;590;48.772;8.846;2023-10-31T09:07:03;2.10;;;1.17;;
253;SDS011;590;48.772;8.846;2023-10-31T09:09:31;1.50;;;1.00;;
253;SDS011;590;48.772;8.846;2023-10-31T09:11:59;0.70;;;0.60;;
253;SDS011;590;48.772;8.846;2023-10-31T09:14:29;1.10;;;0.90;;
253;SDS011;590;48.772;8.846;2023-10-31T09:16:57;1.83;;;0.77;;
253;SDS011;590;48.772;8.846;2023-10-31T09:19:25;2.37;;;0.90;;
253;SDS011;590;48.772;8.846;2023-10-31T09:21:53;1.10;;;0.80;;
253;SDS011;590;48.772;8.846;2023-10-31T09:24:22;1.37;;;1.00;;
253;SDS011;590;48.772;8.846;2023-10-31T09:26:50;1.13;;;0.80;;
253;SDS011;590;48.772;8.846;2023-10-31T09:29:18;2.30;;;1.13;;
253;SDS011;590;48.772;8.846;2023-10-31T09:31:56;1.50;;;0.87;;
253;SDS011;590;48.772;8.846;2023-10-31T09:34:25;3.23;;;0.90;;
253;SDS011;590;48.772;8.846;2023-10-31T09:36:53;1.30;;;0.80;;
253;SDS011;590;48.772;8.846;2023-10-31T09:39:22;2.13;;;0.90;;
253;SDS011;590;48.772;8.846;2023-10-31T09:41:50;1.37;;;0.97;;
253;SDS011;590;48.772;8.846;2023-10-31T09:44:20;3.40;;;1.03;;
253;SDS011;590;48.772;8.846;2023-10-31T09:46:49;2.47;;;0.90;;
253;SDS011;590;48.772;8.846;2023-10-31T09:49:20;1.93;;;0.80;;
253;SDS011;590;48.772;8.846;2023-10-31T09:51:48;0.93;;;0.70;;
253;SDS011;590;48.772;8.846;2023-10-31T09:54:17;1.03;;;0.80;;
253;SDS011;590;48.772;8.846;2023-10-31T09:56:45;1.70;;;0.80;;
253;SDS011;590;48.772;8.846;2023-10-31T09:59:14;1.63;;;1.10;;
253;SDS011;590;48.772;8.846;2023-10-31T10:01:43;3.60;;;1.33;;
253;SDS011;590;48.772;8.846;2023-10-31T10:04:11;2.83;;;1.03;;
253;SDS011;590;48.772;8.846;2023-10-31T10:06:48;1.93;;;0.80;;
253;SDS011;590;48.772;8.846;2023-10-31T10:09:18;2.33;;;1.03;;
253;SDS011;590;48.772;8.846;2023-10-31T10:11:46;0.80;;;0.60;;
253;SDS011;590;48.772;8.846;2023-10-31T10:14:14;1.23;;;0.70;;
253;SDS011;590;48.772;8.846;2023-10-31T10:16:44;1.80;;;0.60;;
253;SDS011;590;48.772;8.846;2023-10-31T10:19:16;0.80;;;0.60;;
253;SDS011;590;48.772;8.846;2023-10-31T10:21:47;1.50;;;0.80;;
253;SDS011;590;48.772;8.846;2023-10-31T10:24:16;1.47;;;0.90;;
253;SDS011;590;48.772;8.846;2023-10-31T10:26:45;1.23;;;0.80;;
253;SDS011;590;48.772;8.846;2023-10-31T10:29:13;1.63;;;0.80;;
253;SDS011;590;48.772;8.846;2023-10-31T10:31:42;1.47;;;0.60;;
253;SDS011;590;48.772;8.846;2023-10-31T10:34:13;1.80;;;0.77;;
253;SDS011;590;48.772;8.846;2023-10-31T10:36:43;1.03;;;0.60;;
253;SDS011;590;48.772;8.846;2023-10-31T10:39:17;0.60;;;0.40;;
253;SDS011;590;48.772;8.846;2023-10-31T10:41:50;1.10;;;0.50;;
253;SDS011;590;48.772;8.846;2023-10-31T10:44:21;0.70;;;0.60;;
253;SDS011;590;48.772;8.846;2023-10-31T10:47:00;0.70;;;0.40;;
253;SDS011;590;48.772;8.846;2023-10-31T10:49:32;0.80;;;0.40;;
253;SDS011;590;48.772;8.846;2023-10-31T10:52:06;0.90;;;0.50;;
253;SDS011;590;48.772;8.846;2023-10-31T10:54:46;1.37;;;0.50;;
253;SDS011;590;48.772;8.846;2023-10-31T10:57:21;0.40;;;0.30;;
253;SDS011;590;48.772;8.846;2023-10-31T10:59:56;0.60;;;0.50;;
253;SDS011;590;48.772;8.846;2023-10-31T11:02:30;0.70;;;0.40;;
253;SDS011;590;48.772;8.846;2023-10-31T11:04:59;2.10;;;0.90;;
253;SDS011;590;48.772;8.846;2023-10-31T11:07:30;0.70;;;0.50;;
253;SDS011;590;48.772;8.846;2023-10-31T11:10:01;1.47;;;0.67;;
253;SDS011;590;48.772;8.846;2023-10-31T11:12:31;1.30;;;0.70;;
253;SDS011;590;48.772;8.846;2023-10-31T11:15:18;1.33;;;0.70;;
253;SDS011;590;48.772;8.846;2023-10-31T11:17:47;1.43;;;0.63;;
253;SDS011;590;48.772;8.846;2023-10-31T11:20:16;0.60;;;0.50;;
253;SDS011;590;48.772;8.846;2023-10-31T11:22:46;1.80;;;1.20;;
253;SDS011;590;48.772;8.846;2023-10-31T11:25:18;1.30;;;0.70;;
253;SDS011;590;48.772;8.846;2023-10-31T11:28:10;0.90;;;0.40;;
253;SDS011;590;48.772;8.846;2023-10-31T11:30:38;0.80;;;0.43;;
253;SDS011;590;48.772;8.846;2023-10-31T11:33:10;0.73;;;0.43;;
253;SDS011;590;48.772;8.846;2023-10-31T11:35:39;1.00;;;0.50;;
253;SDS011;590;48.772;8.846;2023-10-31T11:38:10;0.57;;;0.47;;
253;SDS011;590;48.772;8.846;2023-10-31T11:40:46;2.23;;;0.50;;
253;SDS011;590;48.772;8.846;2023-10-31T11:43:35;0.67;;;0.50;;
253;SDS011;590;48.772;8.846;2023-10-31T11:46:20;1.30;;;0.50;;
253;SDS011;590;48.772;8.846;2023-10-31T11:48:51;1.53;;;0.43;;
253;SDS011;590;48.772;8.846;2023-10-31T11:51:21;0.90;;;0.50;;
253;SDS011;590;48.772;8.846;2023-10-31T11:53:51;2.20;;;0.60;;
253;SDS011;590;48.772;8.846;2023-10-31T11:56:19;1.57;;;0.50;;
253;SDS011;590;48.772;8.846;2023-10-31T11:58:55;7.33;;;2.40;;
253;SDS011;590;48.772;8.846;2023-10-31T12:01:23;11.93;;;3.70;;
253;SDS011;590;48.772;8.846;2023-10-31T12:03:51;1.20;;;0.50;;
253;SDS011;590;48.772;8.846;2023-10-31T12:06:20;0.50;;;0.40;;
253;SDS011;590;48.772;8.846;2023-10-31T12:08:48;1.30;;;0.70;;
253;SDS011;590;48.772;8.846;2023-10-31T12:11:18;0.83;;;0.30;;
253;SDS011;590;48.772;8.846;2023-10-31T12:13:52;0.70;;;0.43;;
253;SDS011;590;48.772;8.846;2023-10-31T12:16:25;0.50;;;0.37;;
253;SDS011;590;48.772;8.846;2023-10-31T12:18:55;0.90;;;0.37;;
253;SDS011;590;48.772;8.846;2023-10-31T12:21:34;0.57;;;0.40;;
253;SDS011;590;48.772;8.846;2023-10-31T12:24:08;1.07;;;0.30;;
253;SDS011;590;48.772;8.846;2023-10-31T12:26:37;0.70;;;0.43;;
253;SDS011;590;48.772;8.846;2023-10-31T12:29:06;0.50;;;0.30;;
253;SDS011;590;48.772;8.846;2023-10-31T12:31:44;0.60;;;0.40;;
253;SDS011;590;48.772;8.846;2023-10-31T12:34:14;1.80;;;0.70;;
253;SDS011;590;48.772;8.846;2023-10-31T12:36:43;0.93;;;0.50;;
253;SDS011;590;48.772;8.846;2023-10-31T12:39:14;0.50;;;0.30;;
253;SDS011;590;48.772;8.846;2023-10-31T12:41:44;0.40;;;0.30;;
253;SDS011;590;48.772;8.846;2023-10-31T12:44:13;0.80;;;0.57;;
253;SDS011;590;48.772;8.846;2023-10-31T12:46:45;1.37;;;0.80;;
253;SDS011;590;48.772;8.846;2023-10-31T12:49:16;0.83;;;0.60;;
253;SDS011;590;48.772;8.846;2023-10-31T12:51:57;2.47;;;2.07;;
253;SDS011;590;48.772;8.846;2023-10-31T12:54:28;0.50;;;0.40;;
253;SDS011;590;48.772;8.846;2023-10-31T12:57:00;1.43;;;0.50;;
253;SDS011;590;48.772;8.846;2023-10-31T12:59:30;0.80;;;0.70;;
253;SDS011;590;48.772;8.846;2023-10-31T13:01:59;1.37;;;0.90;;
253;SDS011;590;48.772;8.846;2023-10-31T13:04:28;0.70;;;0.60;;
253;SDS011;590;48.772;8.846;2023-10-31T13:06:57;0.50;;;0.40;;
253;SDS011;590;48.772;8.846;2023-10-31T13:09:30;0.70;;;0.60;;
253;SDS011;590;48.772;8.846;2023-10-31T13:12:02;0.77;;;0.70;;
253;SDS011;590;48.772;8.846;2023-10-31T13:14:32;0.90;;;0.77;;
253;SDS011;590;48.772;8.846;2023-10-31T13:17:01;1.73;;;1.03;;
253;SDS011;590;48.772;8.846;2023-10-31T13:19:30;1.53;;;0.53;;
253;SDS011;590;48.772;8.846;2023-10-31T13:21:58;3.43;;;0.50;;
253;SDS011;590;48.772;8.846;2023-10-31T13:24:26;0.97;;;0.50;;
253;SDS011;590;48.772;8.846;2023-10-31T13:26:55;0.60;;;0.40;;
253;SDS011;590;48.772;8.846;2023-10-31T13:29:23;0.63;;;0.40;;
253;SDS011;590;48.772;8.846;2023-10-31T13:31:53;0.70;;;0.60;;
253;SDS011;590;48.772;8.846;2023-10-31T13:34:22;0.70;;;0.50;;
253;SDS011;590;48.772;8.846;2023-10-31T13:36:50;0.60;;;0.60;;
253;SDS011;590;48.772;8.846;2023-10-31T13:39:20;0.97;;;0.47;;
253;SDS011;590;48.772;8.846;2023-10-31T13:41:49;1.00;;;0.63;;
253;SDS011;590;48.772;8.846;2023-10-31T13:44:19;0.60;;;0.40;;
253;SDS011;590;48.772;8.846;2023-10-31T13:46:47;0.53;;;0.53;;
253;SDS011;590;48.772;8.846;2023-10-31T13:49:15;1.57;;;0.63;;
253;SDS011;590;48.772;8.846;2023-10-31T13:51:43;2.47;;;1.87;;
253;SDS011;590;48.772;8.846;2023-10-31T13:54:12;0.73;;;0.60;;
253;SDS011;590;48.772;8.846;2023-10-31T13:56:40;0.90;;;0.60;;
253;SDS011;590;48.772;8.846;2023-10-31T13:59:08;0.80;;;0.60;;
253;SDS011;590;48.772;8.846;2023-10-31T14:01:38;0.90;;;0.50;;
253;SDS011;590;48.772;8.846;2023-10-31T14:04:06;0.73;;;0.43;;
253;SDS011;590;48.772;8.846;2023-10-31T14:06:35;1.07;;;0.50;;
253;SDS011;590;48.772;8.846;2023-10-31T14:09:04;0.83;;;0.40;;
253;SDS011;590;48.772;8.846;2023-10-31T14:11:33;1.13;;;0.40;;
253;SDS011;590;48.772;8.846;2023-10-31T14:14:01;0.90;;;0.40;;
253;SDS011;590;48.772;8.846;2023-10-31T14:16:33;0.60;;;0.60;;
253;SDS011;590;48.772;8.846;2023-10-31T14:19:02;1.10;;;0.60;;
253;SDS011;590;48.772;8.846;2023-10-31T14:21:30;1.23;;;0.60;;
253;SDS011;590;48.772;8.846;2023-10-31T14:23:59;1.63;;;0.60;;
253;SDS011;590;48.772;8.846;2023-10-31T14:26:37;0.80;;;0.50;;
253;SDS011;590;48.772;8.846;2023-10-31T14:29:07;1.03;;;0.40;;
253;SDS011;590;48.772;8.846;2023-10-31T14:31:38;0.60;;;0.60;;
253;SDS011;590;48.772;8.846;2023-10-31T14:34:09;1.10;;;0.70;;
253;SDS011;590;48.772;8.846;2023-10-31T14:36:37;0.60;;;0.40;;
253;SDS011;590;48.772;8.846;2023-10-31T14:39:06;0.63;;;0.60;;
253;SDS011;590;48.772;8.846;2023-10-31T14:41:35;0.50;;;0.40;;
253;SDS011;590;48.772;8.846;2023-10-31T14:44:03;0.80;;;0.47;;
253;SDS011;590;48.772;8.846;2023-10-31T14:46:31;1.63;;;0.70;;
253;SDS011;590;48.772;8.846;2023-10-31T14:49:00;1.60;;;0.70;;
253;SDS011;590;48.772;8.846;2023-10-31T14:51:29;1.10;;;0.70;;
253;SDS011;590;48.772;8.846;2023-10-31T14:53:57;1.13;;;0.80;;
253;SDS011;590;48.772;8.846;2023-10-31T14:56:25;1.73;;;0.93;;
253;SDS011;590;48.772;8.846;2023-10-31T14:58:55;5.10;;;1.80;;
253;SDS011;590;48.772;8.846;2023-10-31T15:01:24;1.33;;;0.67;;
253;SDS011;590;48.772;8.846;2023-10-31T15:03:52;0.90;;;0.60;;
253;SDS011;590;48.772;8.846;2023-10-31T15:06:20;0.90;;;0.60;;
253;SDS011;590;48.772;8.846;2023-10-31T15:08:50;0.70;;;0.60;;
253;SDS011;590;48.772;8.846;2023-10-31T15:11:18;0.90;;;0.70;;
253;SDS011;590;48.772;8.846;2023-10-31T15:13:46;0.80;;;0.50;;
253;SDS011;590;48.772;8.846;2023-10-31T15:16:14;1.23;;;0.50;;
253;SDS011;590;48.772;8.846;2023-10-31T15:18:42;0.53;;;0.30;;
253;SDS011;590;48.772;8.846;2023-10-31T15:21:11;1.83;;;0.50;;
253;SDS011;590;48.772;8.846;2023-10-31T15:23:39;3.63;;;0.70;;
253;SDS011;590;48.772;8.846;2023-10-31T15:26:09;1.90;;;1.70;;
253;SDS011;590;48.772;8.846;2023-10-31T15:28:40;4.63;;;4.00;;
253;SDS011;590;48.772;8.846;2023-10-31T15:31:09;3.77;;;3.57;;
253;SDS011;590;48.772;8.846;2023-10-31T15:33:37;1.50;;;1.40;;
253;SDS011;590;48.772;8.846;2023-10-31T15:36:09;1.03;;;0.93;;
253;SDS011;590;48.772;8.846;2023-10-31T15:38:38;0.97;;;0.90;;
253;SDS011;590;48.772;8.846;2023-10-31T15:41:06;1.03;;;0.93;;
253;SDS011;590;48.772;8.846;2023-10-31T15:43:43;1.63;;;1.53;;
253;SDS011;590;48.772;8.846;2023-10-31T15:46:11;1.40;;;1.30;;
253;SDS011;590;48.772;8.846;2023-10-31T15:48:40;3.47;;;2.40;;
253;SDS011;590;48.772;8.846;2023-10-31T15:51:08;1.80;;;1.70;;
253;SDS011;590;48.772;8.846;2023-10-31T15:53:36;1.50;;;1.40;;
253;SDS011;590;48.772;8.846;2023-10-31T15:56:05;1.50;;;1.40;;
253;SDS011;590;48.772;8.846;2023-10-31T15:58:37;0.93;;;0.70;;